createdAt,value
2023-01-29T00:00:26.090Z,18.10
2023-01-29T00:04:28.815Z,18.20
2023-01-29T00:08:31.812Z,18.27
2023-01-29T00:12:35.473Z,19.27
2023-01-29T00:16:39.652Z,17.63
2023-01-29T00:20:44.428Z,17.35
2023-01-29T00:24:47.294Z,17.05
2023-01-29T00:28:50.127Z,18.17
2023-01-29T00:32:54.630Z,18.10
2023-01-29T00:37:04.613Z,18.33
2023-01-29T00:41:25.900Z,17.85
2023-01-29T00:45:28.630Z,18.15
2023-01-29T00:49:32.756Z,18.38
2023-01-29T00:53:35.666Z,17.58
2023-01-29T00:57:39.925Z,17.15
2023-01-29T01:02:00.286Z,17.38
2023-01-29T01:06:10.065Z,16.48
2023-01-29T01:10:22.034Z,17.45
2023-01-29T01:14:36.031Z,17.65
2023-01-29T01:18:40.576Z,17.73
2023-01-29T01:22:44.786Z,18.20
2023-01-29T01:26:47.886Z,18.25
2023-01-29T01:30:50.718Z,18.65
2023-01-29T01:34:53.844Z,19.70
2023-01-29T01:38:57.958Z,18.75
2023-01-29T01:43:02.160Z,18.13
2023-01-29T01:47:04.972Z,19.08
2023-01-29T01:51:07.990Z,17.75
2023-01-29T01:55:14.467Z,18.15
2023-01-29T01:59:19.291Z,17.70
2023-01-29T02:03:41.881Z,17.73
2023-01-29T02:08:05.486Z,18.85
2023-01-29T02:12:13.481Z,18.45
2023-01-29T02:16:17.463Z,19.13
2023-01-29T02:20:25.129Z,18.30
2023-01-29T02:24:56.433Z,18.42
2023-01-29T02:29:22.450Z,18.00
2023-01-29T02:33:34.779Z,18.10
2023-01-29T02:37:40.707Z,18.30
2023-01-29T02:41:49.901Z,18.27
2023-01-29T02:46:02.687Z,18.35
2023-01-29T02:50:13.178Z,17.40
2023-01-29T02:54:21.121Z,17.38
2023-01-29T02:58:32.015Z,18.02
2023-01-29T03:02:42.650Z,16.98
2023-01-29T03:06:50.554Z,17.73
2023-01-29T03:10:58.623Z,17.95
2023-01-29T03:15:16.755Z,17.83
2023-01-29T03:19:42.654Z,17.80
2023-01-29T03:24:13.924Z,16.27
2023-01-29T03:28:38.184Z,18.63
2023-01-29T03:32:42.349Z,17.88
2023-01-29T03:36:55.665Z,17.95
2023-01-29T03:41:03.395Z,17.80
2023-01-29T03:45:12.575Z,18.13
2023-01-29T03:49:25.998Z,17.35
2023-01-29T03:53:37.624Z,17.48
2023-01-29T03:57:45.511Z,18.50
2023-01-29T04:01:54.863Z,17.17
2023-01-29T04:06:09.901Z,17.40
2023-01-29T04:10:23.275Z,18.33
2023-01-29T04:14:26.829Z,19.55
2023-01-29T04:18:30.882Z,17.58
2023-01-29T04:22:43.266Z,17.65
2023-01-29T04:26:56.851Z,17.58
2023-01-29T04:31:04.252Z,18.92
2023-01-29T04:35:22.218Z,17.77
2023-01-29T04:39:29.633Z,17.45
2023-01-29T04:43:42.429Z,18.80
2023-01-29T04:47:51.806Z,18.27
2023-01-29T04:52:01.836Z,18.00
2023-01-29T04:56:11.945Z,17.48
2023-01-29T05:00:21.263Z,18.30
2023-01-29T05:04:25.154Z,17.73
2023-01-29T05:08:30.515Z,18.15
2023-01-29T05:12:35.214Z,17.80
2023-01-29T05:16:45.638Z,18.02
2023-01-29T05:20:49.728Z,18.00
2023-01-29T05:24:52.650Z,17.75
2023-01-29T05:28:56.314Z,18.15
2023-01-29T05:33:00.421Z,18.95
2023-01-29T05:37:03.215Z,17.50
2023-01-29T05:41:06.236Z,18.30
2023-01-29T05:45:10.318Z,18.38
2023-01-29T05:49:14.513Z,17.25
2023-01-29T05:53:17.332Z,17.35
2023-01-29T05:57:20.067Z,16.13
2023-01-29T06:01:25.885Z,16.25
2023-01-29T06:05:30.014Z,16.38
2023-01-29T06:09:32.812Z,16.38
2023-01-29T06:13:35.639Z,16.67
2023-01-29T06:17:38.570Z,16.05
2023-01-29T06:21:42.663Z,16.30
2023-01-29T06:25:45.401Z,16.23
2023-01-29T06:29:48.184Z,16.13
2023-01-29T06:33:50.923Z,16.63
2023-01-29T06:37:55.062Z,17.05
2023-01-29T06:41:57.869Z,16.23
2023-01-29T06:46:00.663Z,16.75
2023-01-29T06:50:03.572Z,16.92
2023-01-29T06:54:08.375Z,16.88
2023-01-29T06:58:12.803Z,15.75
2023-01-29T07:02:15.652Z,16.48
2023-01-29T07:06:20.208Z,16.05
2023-01-29T07:10:24.647Z,16.85
2023-01-29T07:14:27.523Z,16.98
2023-01-29T07:18:32.057Z,17.40
2023-01-29T07:22:34.822Z,16.50
2023-01-29T07:26:38.990Z,16.83
2023-01-29T07:30:41.727Z,16.00
2023-01-29T07:34:44.465Z,16.45
2023-01-29T07:38:50.514Z,16.45
2023-01-29T07:43:00.614Z,13.73
2023-01-29T07:47:03.356Z,14.63
2023-01-29T07:51:06.433Z,13.93
2023-01-29T07:55:10.138Z,14.32
2023-01-29T07:59:14.323Z,13.60
2023-01-29T08:03:18.762Z,13.85
2023-01-29T08:07:21.503Z,13.45
2023-01-29T08:11:24.533Z,14.57
2023-01-29T08:15:30.303Z,14.23
2023-01-29T08:19:33.182Z,13.45
2023-01-29T08:23:35.932Z,14.60
2023-01-29T08:27:38.849Z,14.30
2023-01-29T08:31:42.927Z,14.43
2023-01-29T08:35:50.147Z,14.75
2023-01-29T08:39:56.066Z,14.43
2023-01-29T08:44:00.409Z,14.40
2023-01-29T08:48:04.950Z,14.10
2023-01-29T08:52:07.671Z,13.55
2023-01-29T08:56:10.432Z,13.82
2023-01-29T09:00:15.303Z,14.13
2023-01-29T09:04:19.687Z,14.35
2023-01-29T09:08:22.574Z,14.40
2023-01-29T09:12:25.488Z,13.85
2023-01-29T09:16:28.253Z,14.13
2023-01-29T09:20:33.174Z,13.95
2023-01-29T09:24:36.002Z,15.02
2023-01-29T09:28:38.723Z,12.98
2023-01-29T09:32:53.344Z,14.38
2023-01-29T09:36:58.338Z,14.70
2023-01-29T09:41:09.665Z,13.68
2023-01-29T09:45:16.727Z,14.60
2023-01-29T09:49:25.158Z,14.77
2023-01-29T09:53:34.152Z,15.82
2023-01-29T09:57:51.153Z,14.27
2023-01-29T10:02:03.260Z,14.77
2023-01-29T10:06:22.167Z,14.60
2023-01-29T10:10:34.834Z,16.23
2023-01-29T10:14:47.086Z,14.80
2023-01-29T10:19:18.805Z,14.45
2023-01-29T10:23:26.045Z,13.38
2023-01-29T10:27:34.588Z,14.02
2023-01-29T10:31:40.353Z,14.52
2023-01-29T10:35:49.914Z,15.05
2023-01-29T10:39:52.969Z,14.90
2023-01-29T10:44:07.943Z,14.70
2023-01-29T10:48:36.433Z,14.68
2023-01-29T10:52:50.465Z,14.57
2023-01-29T10:57:03.660Z,14.88
2023-01-29T11:01:08.729Z,15.00
2023-01-29T11:05:20.845Z,14.02
2023-01-29T11:13:43.530Z,14.70
2023-01-29T11:22:17.346Z,12.20
2023-01-29T11:26:24.059Z,12.00
2023-01-29T11:30:31.004Z,12.38
2023-01-29T11:34:33.805Z,12.38
2023-01-29T11:38:37.944Z,12.40
2023-01-29T11:42:40.678Z,11.68
2023-01-29T11:46:43.504Z,11.63
2023-01-29T11:50:53.407Z,11.68
2023-01-29T11:55:00.834Z,12.65
2023-01-29T11:59:04.503Z,11.93
2023-01-29T12:03:14.697Z,11.45
2023-01-29T12:07:19.600Z,11.00
2023-01-29T12:11:30.383Z,11.82
2023-01-29T12:15:35.789Z,10.88
2023-01-29T12:19:43.683Z,11.93
2023-01-29T12:23:54.962Z,11.00
2023-01-29T12:28:09.375Z,10.88
2023-01-29T12:32:26.408Z,10.50
2023-01-29T12:36:35.405Z,10.93
2023-01-29T12:40:45.398Z,10.95
2023-01-29T12:44:53.489Z,11.68
2023-01-29T12:48:59.739Z,11.10
2023-01-29T12:53:08.233Z,11.60
2023-01-29T12:57:22.964Z,10.80
2023-01-29T13:01:33.546Z,10.15
2023-01-29T13:05:42.344Z,11.18
2023-01-29T13:09:50.835Z,11.68
2023-01-29T13:13:59.002Z,11.48
2023-01-29T13:18:29.384Z,10.75
2023-01-29T13:22:36.895Z,11.32
2023-01-29T13:26:41.630Z,10.23
2023-01-29T13:30:44.802Z,11.23
2023-01-29T13:34:51.306Z,11.48
2023-01-29T13:39:00.581Z,11.65
2023-01-29T13:43:04.171Z,12.52
2023-01-29T13:47:09.935Z,14.07
2023-01-29T13:51:20.110Z,11.88
2023-01-29T13:55:31.408Z,11.73
2023-01-29T13:59:51.825Z,11.85
2023-01-29T14:04:06.039Z,12.68
2023-01-29T14:08:42.648Z,13.13
2023-01-29T14:12:52.914Z,13.38
2023-01-29T14:17:03.083Z,13.63
2023-01-29T14:21:07.812Z,14.27
2023-01-29T14:25:19.705Z,14.13
2023-01-29T14:29:34.442Z,14.32
2023-01-29T14:33:42.386Z,15.23
2023-01-29T14:37:49.147Z,14.60
2023-01-29T14:41:53.725Z,15.50
2023-01-29T14:45:56.537Z,14.90
2023-01-29T14:50:00.528Z,15.15
2023-01-29T14:54:07.338Z,16.85
2023-01-29T14:58:16.529Z,16.05
2023-01-29T15:02:25.060Z,16.00
2023-01-29T15:06:33.946Z,16.10
2023-01-29T15:10:44.177Z,15.13
2023-01-29T15:14:57.655Z,15.80
2023-01-29T15:19:12.701Z,16.00
2023-01-29T15:23:26.944Z,15.98
2023-01-29T15:27:31.147Z,14.60
2023-01-29T15:31:36.293Z,14.65
2023-01-29T15:35:41.488Z,14.90
2023-01-29T15:39:45.725Z,15.20
2023-01-29T15:43:51.576Z,14.38
2023-01-29T15:48:01.479Z,13.30
2023-01-29T15:52:08.147Z,13.73
2023-01-29T15:56:12.956Z,14.52
2023-01-29T16:00:24.262Z,12.95
2023-01-29T16:04:31.315Z,12.40
2023-01-29T16:08:35.402Z,11.15
2023-01-29T16:12:39.063Z,11.52
2023-01-29T16:16:45.182Z,14.32
2023-01-29T16:20:53.442Z,12.30
2023-01-29T16:24:56.531Z,11.98
2023-01-29T16:29:05.330Z,12.35
2023-01-29T16:33:12.814Z,12.75
2023-01-29T16:37:25.049Z,13.68
2023-01-29T16:41:33.377Z,11.95
2023-01-29T16:45:36.188Z,12.95
2023-01-29T16:49:49.469Z,12.27
2023-01-29T16:54:08.490Z,13.75
2023-01-29T16:58:16.414Z,13.93
2023-01-29T17:02:24.509Z,13.80
2023-01-29T17:06:28.555Z,12.85
2023-01-29T17:10:33.829Z,13.35
2023-01-29T17:14:38.503Z,13.40
2023-01-29T17:18:41.331Z,13.15
2023-01-29T17:22:44.594Z,12.48
2023-01-29T17:26:49.086Z,12.70
2023-01-29T17:31:05.241Z,13.27
2023-01-29T17:35:10.006Z,12.68
2023-01-29T17:39:19.022Z,12.52
2023-01-29T17:43:23.231Z,11.70
2023-01-29T17:47:26.890Z,12.23
2023-01-29T17:51:30.054Z,12.70
2023-01-29T17:55:33.737Z,12.82
2023-01-29T17:59:38.374Z,12.98
2023-01-29T18:03:41.513Z,12.75
2023-01-29T18:07:46.913Z,12.98
2023-01-29T18:11:50.977Z,12.60
2023-01-29T18:15:55.354Z,12.15
2023-01-29T18:19:59.837Z,12.85
2023-01-29T18:24:02.950Z,13.23
2023-01-29T18:28:07.220Z,10.60
2023-01-29T18:32:11.707Z,10.85
2023-01-29T18:36:15.963Z,11.57
2023-01-29T18:40:20.380Z,10.88
2023-01-29T18:44:23.183Z,10.40
2023-01-29T18:48:29.021Z,11.38
2023-01-29T18:52:33.881Z,10.82
2023-01-29T18:57:13.174Z,10.63
2023-01-29T19:01:06.927Z,11.07
2023-01-29T19:05:12.906Z,11.38
2023-01-29T19:09:16.123Z,11.80
2023-01-29T19:13:19.510Z,12.35
2023-01-29T19:17:22.676Z,12.20
2023-01-29T19:21:27.934Z,12.25
2023-01-29T19:25:30.672Z,12.05
2023-01-29T19:29:33.427Z,11.90
2023-01-29T19:33:36.540Z,12.52
2023-01-29T19:37:40.638Z,12.45
2023-01-29T19:41:43.571Z,12.48
2023-01-29T19:45:49.946Z,12.80
2023-01-29T19:49:53.376Z,13.13
2023-01-29T19:53:57.594Z,12.23
2023-01-29T19:58:00.729Z,12.10
2023-01-29T20:02:03.634Z,11.85
2023-01-29T20:06:07.580Z,11.65
2023-01-29T20:10:17.565Z,11.90
2023-01-29T20:14:20.968Z,11.68
2023-01-29T20:18:24.197Z,11.98
2023-01-29T20:22:27.658Z,11.50
2023-01-29T20:26:31.764Z,10.55
2023-01-29T20:30:34.754Z,11.45
2023-01-29T20:34:37.543Z,11.07
2023-01-29T20:38:40.539Z,11.30
2023-01-29T20:42:48.571Z,10.07
2023-01-29T20:46:51.721Z,9.80
2023-01-29T20:50:58.096Z,11.43
2023-01-29T20:55:01.194Z,12.30
2023-01-29T20:59:06.017Z,11.23
2023-01-29T21:03:09.025Z,11.27
2023-01-29T21:07:12.340Z,11.02
2023-01-29T21:11:15.545Z,11.40
2023-01-29T21:15:20.838Z,11.07
2023-01-29T21:19:24.556Z,11.48
2023-01-29T21:23:27.695Z,10.40
2023-01-29T21:27:30.577Z,10.95
2023-01-29T21:31:34.962Z,10.75
2023-01-29T21:35:38.369Z,9.55
2023-01-29T21:39:41.156Z,10.20
2023-01-29T21:43:46.779Z,10.30
2023-01-29T21:47:51.018Z,10.23
2023-01-29T21:51:54.601Z,10.13
2023-01-29T21:56:05.826Z,10.73
2023-01-29T22:00:11.211Z,10.70
2023-01-29T22:04:15.653Z,10.30
2023-01-29T22:08:20.595Z,10.15
2023-01-29T22:12:24.249Z,10.93
2023-01-29T22:16:27.067Z,11.00
2023-01-29T22:20:36.670Z,9.95
2023-01-29T22:24:39.445Z,10.32
2023-01-29T22:28:47.618Z,10.05
2023-01-29T22:32:51.045Z,9.65
2023-01-29T22:36:55.486Z,10.40
2023-01-29T22:41:00.848Z,11.10
2023-01-29T22:45:03.733Z,10.65
2023-01-29T22:49:06.467Z,10.32
2023-01-29T22:53:11.339Z,10.75
2023-01-29T22:57:16.443Z,10.68
2023-01-29T23:01:20.111Z,11.55
2023-01-29T23:05:22.928Z,9.88
2023-01-29T23:09:27.102Z,10.73
2023-01-29T23:13:29.920Z,11.25
2023-01-29T23:17:32.910Z,11.40
2023-01-29T23:21:35.649Z,12.23
2023-01-29T23:26:11.892Z,12.30
2023-01-29T23:30:17.775Z,12.18
2023-01-29T23:34:21.535Z,12.23
2023-01-29T23:38:25.274Z,12.68
2023-01-29T23:42:29.994Z,11.60
2023-01-29T23:46:33.354Z,12.02
2023-01-29T23:50:36.622Z,13.57
2023-01-29T23:54:40.752Z,13.05
2023-01-29T23:58:46.344Z,14.10
